Terminal Aerodrome Forecast
Issued by NWS

Home | Current Version | Previous Version | Text Only | Print | Product List | Glossary On
Versions: 1 2 3 4 5 6 7 8 9 10 11 12
000
FTUS42 KTBW 300523 AAA
TAFPGD
TAF AMD
KPGD 300523Z 3005/3106 07007KT P6SM FEW250
     FM302000 21008KT P6SM VCTS SCT035CB BKN250
     FM310200 06006KT P6SM SCT035 BKN250=

USA.gov is the U.S. government's official web portal to all federal, state and local government web resources and services.